PWSweather.com
Personal Weather Stations
Station Observations

MakarauRodneyNZ

Lat: -36.52421, Lon: 174.47572

Elevation: 606

Station Type: Davis VP2

http://kaiparaweather.dynu.net/index.php

High Low Average
Temperature 62.7°F17.1°C 51.3°F10.7°C 56.2°F13.4°C
Dew Point 52.9°F11.6°C 45.7°F7.6°C 48.3°F9.1°C
Winds 17.3 mph 27.8 kmh Calm Calm 8.0 mph WSW12.9 kmh WSW
Wind Gusts 20.7 mph33.3 kmh -- 12.0 mph19.3 kmh
Humidity 84% 65% 75%
Pressure 30.25 in1024.4 mb 30.08 in1018.6 mb -
Precipitation 0.00 in0.0 mm - -
Hour Temp Dew Point Humidity Winds Wind Gusts Pressure Precip Precip Rate Daily Precip Total
12:00 AM 52.2°F11.2°C 45.9°F7.7°C 79% 13.8 mph SW22.2 kmh SW 19.6 mph31.5 kmh 30.09 in1019.0 mb - 0.00 in0.0 mm 0.00 in0.0 mm
12:10 AM 52.1°F11.2°C 45.8°F7.7°C 79% 13.8 mph SW22.2 kmh SW 15.0 mph24.1 kmh 30.09 in1019.0 mb - 0.00 in0.0 mm 0.00 in0.0 mm
12:20 AM 51.8°F11.0°C 45.9°F7.7°C 80% 10.4 mph WSW16.7 kmh WSW 16.1 mph25.9 kmh 30.08 in1018.6 mb - 0.00 in0.0 mm 0.00 in0.0 mm
12:30 AM 52.0°F11.1°C 46.3°F7.9°C 81% 11.5 mph SW18.5 kmh SW 12.7 mph20.4 kmh 30.08 in1018.6 mb - 0.00 in0.0 mm 0.00 in0.0 mm
12:40 AM 52.0°F11.1°C 46.4°F8.0°C 81% 12.7 mph WSW20.4 kmh WSW 19.6 mph31.5 kmh 30.08 in1018.6 mb - 0.00 in0.0 mm 0.00 in0.0 mm
12:50 AM 52.0°F11.1°C 46.3°F7.9°C 81% 12.7 mph SW20.4 kmh SW 19.6 mph31.5 kmh 30.09 in1019.0 mb - 0.00 in0.0 mm 0.00 in0.0 mm
01:00 AM 52.0°F11.1°C 46.7°F8.2°C 82% 15.0 mph SW24.1 kmh SW 17.3 mph27.8 kmh 30.09 in1019.0 mb - 0.00 in0.0 mm 0.00 in0.0 mm
01:10 AM 52.3°F11.3°C 47.0°F8.3°C 82% 16.1 mph WSW25.9 kmh WSW 19.6 mph31.5 kmh 30.10 in1019.3 mb - 0.00 in0.0 mm 0.00 in0.0 mm
01:20 AM 52.2°F11.2°C 46.8°F8.2°C 82% 13.8 mph WSW22.2 kmh WSW 17.3 mph27.8 kmh 30.10 in1019.3 mb - 0.00 in0.0 mm 0.00 in0.0 mm
01:30 AM 52.4°F11.3°C 46.7°F8.2°C 81% 11.5 mph SW18.5 kmh SW 16.1 mph25.9 kmh 30.10 in1019.3 mb - 0.00 in0.0 mm 0.00 in0.0 mm
01:40 AM 52.6°F11.4°C 46.9°F8.3°C 81% 12.7 mph SW20.4 kmh SW 18.4 mph29.6 kmh 30.11 in1019.6 mb - 0.00 in0.0 mm 0.00 in0.0 mm
01:50 AM 52.5°F11.4°C 46.8°F8.2°C 81% 10.4 mph SW16.7 kmh SW 12.7 mph20.4 kmh 30.11 in1019.6 mb - 0.00 in0.0 mm 0.00 in0.0 mm
02:00 AM 52.4°F11.3°C 46.8°F8.2°C 81% 11.5 mph SW18.5 kmh SW 12.7 mph20.4 kmh 30.11 in1019.6 mb - 0.00 in0.0 mm 0.00 in0.0 mm
02:10 AM 52.5°F11.4°C 46.8°F8.2°C 81% 12.7 mph SW20.4 kmh SW 13.8 mph22.2 kmh 30.12 in1020.0 mb - 0.00 in0.0 mm 0.00 in0.0 mm
02:20 AM 52.7°F11.5°C 47.0°F8.3°C 81% 9.2 mph SW14.8 kmh SW 12.7 mph20.4 kmh 30.12 in1020.0 mb - 0.00 in0.0 mm 0.00 in0.0 mm
02:30 AM 52.4°F11.3°C 46.7°F8.2°C 81% 9.2 mph SW14.8 kmh SW 16.1 mph25.9 kmh 30.12 in1020.0 mb - 0.00 in0.0 mm 0.00 in0.0 mm
02:40 AM 52.3°F11.3°C 46.6°F8.1°C 81% 9.2 mph SW14.8 kmh SW 11.5 mph18.5 kmh 30.13 in1020.3 mb - 0.00 in0.0 mm 0.00 in0.0 mm
02:50 AM 52.0°F11.1°C 46.3°F7.9°C 81% 9.2 mph SW14.8 kmh SW 11.5 mph18.5 kmh 30.13 in1020.3 mb - 0.00 in0.0 mm 0.00 in0.0 mm
03:00 AM 51.9°F11.1°C 46.3°F7.9°C 81% 10.4 mph SW16.7 kmh SW 13.8 mph22.2 kmh 30.13 in1020.3 mb - 0.00 in0.0 mm 0.00 in0.0 mm
03:10 AM 52.0°F11.1°C 46.4°F8.0°C 81% 11.5 mph SW18.5 kmh SW 15.0 mph24.1 kmh 30.13 in1020.3 mb - 0.00 in0.0 mm 0.00 in0.0 mm
03:20 AM 52.2°F11.2°C 46.6°F8.1°C 81% 12.7 mph SW20.4 kmh SW 15.0 mph24.1 kmh 30.14 in1020.7 mb - 0.00 in0.0 mm 0.00 in0.0 mm
03:30 AM 52.2°F11.2°C 46.5°F8.1°C 81% 11.5 mph SW18.5 kmh SW 13.8 mph22.2 kmh 30.14 in1020.7 mb - 0.00 in0.0 mm 0.00 in0.0 mm
03:40 AM 52.1°F11.2°C 46.7°F8.2°C 82% 10.4 mph SW16.7 kmh SW 12.7 mph20.4 kmh 30.14 in1020.7 mb - 0.00 in0.0 mm 0.00 in0.0 mm
03:50 AM 52.0°F11.1°C 46.6°F8.1°C 82% 9.2 mph SW14.8 kmh SW 11.5 mph18.5 kmh 30.14 in1020.7 mb - 0.00 in0.0 mm 0.00 in0.0 mm
04:00 AM 52.1°F11.2°C 46.8°F8.2°C 82% 10.4 mph SW16.7 kmh SW 12.7 mph20.4 kmh 30.15 in1021.0 mb - 0.00 in0.0 mm 0.00 in0.0 mm
04:10 AM 52.1°F11.2°C 46.8°F8.2°C 82% 9.2 mph SW14.8 kmh SW 10.4 mph16.7 kmh 30.15 in1021.0 mb - 0.00 in0.0 mm 0.00 in0.0 mm
04:20 AM 52.2°F11.2°C 46.9°F8.3°C 82% 10.4 mph SW16.7 kmh SW 12.7 mph20.4 kmh 30.15 in1021.0 mb - 0.00 in0.0 mm 0.00 in0.0 mm
04:30 AM 52.1°F11.2°C 47.1°F8.4°C 83% 8.1 mph SW13.0 kmh SW 11.5 mph18.5 kmh 30.15 in1021.0 mb - 0.00 in0.0 mm 0.00 in0.0 mm
04:40 AM 51.5°F10.8°C 46.8°F8.2°C 84% 8.1 mph SW13.0 kmh SW 11.5 mph18.5 kmh 30.16 in1021.3 mb - 0.00 in0.0 mm 0.00 in0.0 mm
04:50 AM 51.5°F10.8°C 46.5°F8.1°C 83% 5.8 mph SW9.3 kmh SW 11.5 mph18.5 kmh 30.16 in1021.3 mb - 0.00 in0.0 mm 0.00 in0.0 mm
05:00 AM 51.6°F10.9°C 46.6°F8.1°C 83% 8.1 mph SW13.0 kmh SW 11.5 mph18.5 kmh 30.17 in1021.7 mb - 0.00 in0.0 mm 0.00 in0.0 mm
05:10 AM 51.3°F10.7°C 46.3°F7.9°C 83% 5.8 mph SW9.3 kmh SW 9.2 mph14.8 kmh 30.17 in1021.7 mb - 0.00 in0.0 mm 0.00 in0.0 mm
05:20 AM 51.4°F10.8°C 46.4°F8.0°C 83% 8.1 mph SW13.0 kmh SW 11.5 mph18.5 kmh 30.18 in1022.0 mb - 0.00 in0.0 mm 0.00 in0.0 mm
05:30 AM 51.4°F10.8°C 46.4°F8.0°C 83% 6.9 mph SW11.1 kmh SW 8.1 mph13.0 kmh 30.18 in1022.0 mb - 0.00 in0.0 mm 0.00 in0.0 mm
05:40 AM 51.3°F10.7°C 46.3°F7.9°C 83% 9.2 mph SW14.8 kmh SW 11.5 mph18.5 kmh 30.19 in1022.4 mb - 0.00 in0.0 mm 0.00 in0.0 mm
05:50 AM 51.4°F10.8°C 46.1°F7.8°C 82% 8.1 mph SW13.0 kmh SW 10.4 mph16.7 kmh 30.19 in1022.4 mb - 0.00 in0.0 mm 0.00 in0.0 mm
06:00 AM 51.7°F10.9°C 46.4°F8.0°C 82% 5.8 mph SW9.3 kmh SW 9.2 mph14.8 kmh 30.20 in1022.7 mb - 0.00 in0.0 mm 0.00 in0.0 mm
06:10 AM 51.6°F10.9°C 46.3°F7.9°C 82% 1.2 mph SW1.9 kmh SW 2.3 mph3.7 kmh 30.20 in1022.7 mb - 0.00 in0.0 mm 0.00 in0.0 mm
06:20 AM 51.7°F10.9°C 46.4°F8.0°C 82% 2.3 mph WSW3.7 kmh WSW 3.5 mph5.6 kmh 30.21 in1023.0 mb - 0.00 in0.0 mm 0.00 in0.0 mm
06:30 AM 52.5°F11.4°C 47.2°F8.4°C 82% 2.3 mph WSW3.7 kmh WSW 3.5 mph5.6 kmh 30.21 in1023.0 mb - 0.00 in0.0 mm 0.00 in0.0 mm
06:40 AM 53.4°F11.9°C 47.0°F8.3°C 79% 4.6 mph SW7.4 kmh SW 5.8 mph9.3 kmh 30.21 in1023.0 mb - 0.00 in0.0 mm 0.00 in0.0 mm
06:50 AM 53.9°F12.2°C 47.5°F8.6°C 79% 3.5 mph SW5.6 kmh SW 5.8 mph9.3 kmh 30.21 in1023.0 mb - 0.00 in0.0 mm 0.00 in0.0 mm
07:00 AM 54.1°F12.3°C 47.4°F8.6°C 78% 5.8 mph SSW9.3 kmh SSW 11.5 mph18.5 kmh 30.21 in1023.0 mb - 0.00 in0.0 mm 0.00 in0.0 mm
07:10 AM 55.0°F12.8°C 48.3°F9.1°C 78% 5.8 mph SW9.3 kmh SW 10.4 mph16.7 kmh 30.22 in1023.4 mb - 0.00 in0.0 mm 0.00 in0.0 mm
07:20 AM 55.0°F12.8°C 47.2°F8.4°C 75% 9.2 mph SW14.8 kmh SW 11.5 mph18.5 kmh 30.22 in1023.4 mb - 0.00 in0.0 mm 0.00 in0.0 mm
07:30 AM 55.3°F12.9°C 47.5°F8.6°C 75% 5.8 mph SW9.3 kmh SW 8.1 mph13.0 kmh 30.23 in1023.7 mb - 0.00 in0.0 mm 0.00 in0.0 mm
07:40 AM 55.5°F13.1°C 47.7°F8.7°C 75% 10.4 mph SW16.7 kmh SW 11.5 mph18.5 kmh 30.23 in1023.7 mb - 0.00 in0.0 mm 0.00 in0.0 mm
07:50 AM 56.2°F13.4°C 48.4°F9.1°C 75% 6.9 mph SW11.1 kmh SW 11.5 mph18.5 kmh 30.23 in1023.7 mb - 0.00 in0.0 mm 0.00 in0.0 mm
08:00 AM 57.1°F13.9°C 48.2°F9.0°C 72% 9.2 mph SW14.8 kmh SW 15.0 mph24.1 kmh 30.23 in1023.7 mb - 0.00 in0.0 mm 0.00 in0.0 mm
08:10 AM 57.1°F13.9°C 49.3°F9.6°C 75% 4.6 mph WSW7.4 kmh WSW 17.3 mph27.8 kmh 30.23 in1023.7 mb - 0.00 in0.0 mm 0.00 in0.0 mm
08:20 AM 57.7°F14.3°C 49.1°F9.5°C 73% 3.5 mph WSW5.6 kmh WSW 8.1 mph13.0 kmh 30.23 in1023.7 mb - 0.00 in0.0 mm 0.00 in0.0 mm
08:30 AM 56.3°F13.5°C 48.2°F9.0°C 74% 9.2 mph SW14.8 kmh SW 13.8 mph22.2 kmh 30.24 in1024.0 mb - 0.00 in0.0 mm 0.00 in0.0 mm
08:40 AM 58.1°F14.5°C 49.8°F9.9°C 74% 6.9 mph WSW11.1 kmh WSW 11.5 mph18.5 kmh 30.24 in1024.0 mb - 0.00 in0.0 mm 0.00 in0.0 mm
08:50 AM 58.5°F14.7°C 49.9°F9.9°C 73% 3.5 mph WSW5.6 kmh WSW 9.2 mph14.8 kmh 30.24 in1024.0 mb - 0.00 in0.0 mm 0.00 in0.0 mm
09:00 AM 57.5°F14.2°C 49.3°F9.6°C 74% 5.8 mph WSW9.3 kmh WSW 8.1 mph13.0 kmh 30.23 in1023.7 mb - 0.00 in0.0 mm 0.00 in0.0 mm
09:10 AM 57.3°F14.1°C 49.4°F9.7°C 75% 10.4 mph SW16.7 kmh SW 16.1 mph25.9 kmh 30.24 in1024.0 mb - 0.00 in0.0 mm 0.00 in0.0 mm
09:20 AM 58.7°F14.8°C 50.8°F10.4°C 75% 5.8 mph SW9.3 kmh SW 15.0 mph24.1 kmh 30.23 in1023.7 mb - 0.00 in0.0 mm 0.00 in0.0 mm
09:30 AM 59.7°F15.4°C 51.4°F10.8°C 74% 8.1 mph SW13.0 kmh SW 13.8 mph22.2 kmh 30.24 in1024.0 mb - 0.00 in0.0 mm 0.00 in0.0 mm
09:40 AM 60.1°F15.6°C 50.6°F10.3°C 71% 5.8 mph WSW9.3 kmh WSW 12.7 mph20.4 kmh 30.25 in1024.4 mb - 0.00 in0.0 mm 0.00 in0.0 mm
09:50 AM 60.2°F15.7°C 51.1°F10.6°C 72% 6.9 mph SW11.1 kmh SW 10.4 mph16.7 kmh 30.25 in1024.4 mb - 0.00 in0.0 mm 0.00 in0.0 mm
10:00 AM 59.5°F15.3°C 49.7°F9.8°C 70% 13.8 mph SW22.2 kmh SW 19.6 mph31.5 kmh 30.25 in1024.4 mb - 0.00 in0.0 mm 0.00 in0.0 mm
10:10 AM 59.2°F15.1°C 49.4°F9.7°C 70% 11.5 mph SW18.5 kmh SW 20.7 mph33.3 kmh 30.24 in1024.0 mb - 0.00 in0.0 mm 0.00 in0.0 mm
10:20 AM 60.6°F15.9°C 52.6°F11.4°C 75% 8.1 mph SW13.0 kmh SW 12.7 mph20.4 kmh 30.25 in1024.4 mb - 0.00 in0.0 mm 0.00 in0.0 mm
10:30 AM 59.7°F15.4°C 49.9°F9.9°C 70% 12.7 mph SW20.4 kmh SW 19.6 mph31.5 kmh 30.25 in1024.4 mb - 0.00 in0.0 mm 0.00 in0.0 mm
10:40 AM 60.0°F15.6°C 50.6°F10.3°C 71% 6.9 mph WSW11.1 kmh WSW 15.0 mph24.1 kmh 30.24 in1024.0 mb - 0.00 in0.0 mm 0.00 in0.0 mm
10:50 AM 59.5°F15.3°C 49.3°F9.6°C 69% 15.0 mph WSW24.1 kmh WSW 19.6 mph31.5 kmh 30.24 in1024.0 mb - 0.00 in0.0 mm 0.00 in0.0 mm
11:00 AM 60.2°F15.7°C 50.0°F10.0°C 69% 17.3 mph SW27.8 kmh SW 19.6 mph31.5 kmh 30.24 in1024.0 mb - 0.00 in0.0 mm 0.00 in0.0 mm
11:10 AM 59.9°F15.5°C 51.2°F10.7°C 73% 8.1 mph WSW13.0 kmh WSW 11.5 mph18.5 kmh 30.24 in1024.0 mb - 0.00 in0.0 mm 0.00 in0.0 mm
11:20 AM 60.5°F15.8°C 51.0°F10.6°C 71% 9.2 mph WSW14.8 kmh WSW 16.1 mph25.9 kmh 30.24 in1024.0 mb - 0.00 in0.0 mm 0.00 in0.0 mm
11:30 AM 60.4°F15.8°C 51.7°F10.9°C 73% 9.2 mph WSW14.8 kmh WSW 10.4 mph16.7 kmh 30.24 in1024.0 mb - 0.00 in0.0 mm 0.00 in0.0 mm
11:40 AM 60.1°F15.6°C 51.0°F10.6°C 72% 13.8 mph SW22.2 kmh SW 16.1 mph25.9 kmh 30.23 in1023.7 mb - 0.00 in0.0 mm 0.00 in0.0 mm
11:50 AM 61.1°F16.2°C 52.4°F11.3°C 73% 9.2 mph W14.8 kmh W 16.1 mph25.9 kmh 30.23 in1023.7 mb - 0.00 in0.0 mm 0.00 in0.0 mm
12:00 PM 61.7°F16.5°C 52.5°F11.4°C 72% 11.5 mph WSW18.5 kmh WSW 11.5 mph18.5 kmh 30.23 in1023.7 mb - 0.00 in0.0 mm 0.00 in0.0 mm
12:10 PM 61.5°F16.4°C 52.7°F11.5°C 73% 8.1 mph WSW13.0 kmh WSW 11.5 mph18.5 kmh 30.23 in1023.7 mb - 0.00 in0.0 mm 0.00 in0.0 mm
12:20 PM 61.9°F16.6°C 52.8°F11.6°C 72% 11.5 mph WSW18.5 kmh WSW 13.8 mph22.2 kmh 30.23 in1023.7 mb - 0.00 in0.0 mm 0.00 in0.0 mm
12:30 PM 62.7°F17.1°C 52.4°F11.3°C 69% 9.2 mph W14.8 kmh W 18.4 mph29.6 kmh 30.23 in1023.7 mb - 0.00 in0.0 mm 0.00 in0.0 mm
12:40 PM 62.0°F16.7°C 51.7°F10.9°C 69% 9.2 mph WSW14.8 kmh WSW 18.4 mph29.6 kmh 30.23 in1023.7 mb - 0.00 in0.0 mm 0.00 in0.0 mm
12:50 PM 62.4°F16.9°C 52.9°F11.6°C 71% 6.9 mph WSW11.1 kmh WSW 12.7 mph20.4 kmh 30.23 in1023.7 mb - 0.00 in0.0 mm 0.00 in0.0 mm
01:00 PM 62.7°F17.1°C 52.4°F11.3°C 69% 8.1 mph WSW13.0 kmh WSW 11.5 mph18.5 kmh 30.22 in1023.4 mb - 0.00 in0.0 mm 0.00 in0.0 mm
01:10 PM 60.9°F16.1°C 50.7°F10.4°C 69% 9.2 mph WSW14.8 kmh WSW 11.5 mph18.5 kmh 30.23 in1023.7 mb - 0.00 in0.0 mm 0.00 in0.0 mm
01:20 PM 62.0°F16.7°C 50.5°F10.3°C 66% 9.2 mph WSW14.8 kmh WSW 15.0 mph24.1 kmh 30.22 in1023.4 mb - 0.00 in0.0 mm 0.00 in0.0 mm
01:30 PM 61.8°F16.6°C 51.5°F10.8°C 69% 9.2 mph SW14.8 kmh SW 13.8 mph22.2 kmh 30.22 in1023.4 mb - 0.00 in0.0 mm 0.00 in0.0 mm
01:40 PM 62.3°F16.8°C 51.2°F10.7°C 67% 9.2 mph WSW14.8 kmh WSW 11.5 mph18.5 kmh 30.22 in1023.4 mb - 0.00 in0.0 mm 0.00 in0.0 mm
01:50 PM 62.0°F16.7°C 51.7°F10.9°C 69% 8.1 mph WNW13.0 kmh WNW 17.3 mph27.8 kmh 30.21 in1023.0 mb - 0.00 in0.0 mm 0.00 in0.0 mm
02:00 PM 62.3°F16.8°C 51.6°F10.9°C 68% 13.8 mph SW22.2 kmh SW 17.3 mph27.8 kmh 30.21 in1023.0 mb - 0.00 in0.0 mm 0.00 in0.0 mm
02:10 PM 61.8°F16.6°C 51.5°F10.8°C 69% 4.6 mph WSW7.4 kmh WSW 11.5 mph18.5 kmh 30.21 in1023.0 mb - 0.00 in0.0 mm 0.00 in0.0 mm
02:20 PM 62.0°F16.7°C 51.7°F10.9°C 69% 8.1 mph WSW13.0 kmh WSW 11.5 mph18.5 kmh 30.21 in1023.0 mb - 0.00 in0.0 mm 0.00 in0.0 mm
02:30 PM 62.3°F16.8°C 52.0°F11.1°C 69% 11.5 mph WSW18.5 kmh WSW 12.7 mph20.4 kmh 30.21 in1023.0 mb - 0.00 in0.0 mm 0.00 in0.0 mm
02:40 PM 61.5°F16.4°C 50.8°F10.4°C 68% 8.1 mph WSW13.0 kmh WSW 20.7 mph33.3 kmh 30.20 in1022.7 mb - 0.00 in0.0 mm 0.00 in0.0 mm
02:50 PM 61.9°F16.6°C 51.2°F10.7°C 68% 8.1 mph WSW13.0 kmh WSW 9.2 mph14.8 kmh 30.20 in1022.7 mb - 0.00 in0.0 mm 0.00 in0.0 mm
03:00 PM 62.1°F16.7°C 51.8°F11.0°C 69% 8.1 mph WSW13.0 kmh WSW 13.8 mph22.2 kmh 30.20 in1022.7 mb - 0.00 in0.0 mm 0.00 in0.0 mm
03:10 PM 62.3°F16.8°C 50.4°F10.2°C 65% 8.1 mph WSW13.0 kmh WSW 16.1 mph25.9 kmh 30.20 in1022.7 mb - 0.00 in0.0 mm 0.00 in0.0 mm
03:20 PM 61.5°F16.4°C 51.2°F10.7°C 69% 8.1 mph SW13.0 kmh SW 11.5 mph18.5 kmh 30.20 in1022.7 mb - 0.00 in0.0 mm 0.00 in0.0 mm
03:30 PM 61.9°F16.6°C 51.3°F10.7°C 68% 10.4 mph W16.7 kmh W 19.6 mph31.5 kmh 30.21 in1023.0 mb - 0.00 in0.0 mm 0.00 in0.0 mm
03:40 PM 61.6°F16.4°C 50.1°F10.1°C 66% 9.2 mph WSW14.8 kmh WSW 11.5 mph18.5 kmh 30.21 in1023.0 mb - 0.00 in0.0 mm 0.00 in0.0 mm
03:50 PM 61.3°F16.3°C 50.6°F10.3°C 68% 10.4 mph W16.7 kmh W 18.4 mph29.6 kmh 30.21 in1023.0 mb - 0.00 in0.0 mm 0.00 in0.0 mm
04:00 PM 60.5°F15.8°C 50.3°F10.2°C 69% 6.9 mph WSW11.1 kmh WSW 8.1 mph13.0 kmh 30.21 in1023.0 mb - 0.00 in0.0 mm 0.00 in0.0 mm
04:10 PM 60.6°F15.9°C 50.7°F10.4°C 70% 10.4 mph W16.7 kmh W 18.4 mph29.6 kmh 30.21 in1023.0 mb - 0.00 in0.0 mm 0.00 in0.0 mm
04:20 PM 59.8°F15.4°C 49.6°F9.8°C 69% 6.9 mph WSW11.1 kmh WSW 10.4 mph16.7 kmh 30.20 in1022.7 mb - 0.00 in0.0 mm 0.00 in0.0 mm
04:30 PM 59.2°F15.1°C 49.0°F9.4°C 69% 8.1 mph WSW13.0 kmh WSW 11.5 mph18.5 kmh 30.20 in1022.7 mb - 0.00 in0.0 mm 0.00 in0.0 mm
04:40 PM 58.2°F14.6°C 48.9°F9.4°C 71% 9.2 mph SW14.8 kmh SW 16.1 mph25.9 kmh 30.20 in1022.7 mb - 0.00 in0.0 mm 0.00 in0.0 mm
04:50 PM 57.9°F14.4°C 47.8°F8.8°C 69% 8.1 mph SW13.0 kmh SW 10.4 mph16.7 kmh 30.20 in1022.7 mb - 0.00 in0.0 mm 0.00 in0.0 mm
05:00 PM 57.6°F14.2°C 47.9°F8.8°C 70% 9.2 mph NW14.8 kmh NW 15.0 mph24.1 kmh 30.21 in1023.0 mb - 0.00 in0.0 mm 0.00 in0.0 mm
05:10 PM 57.6°F14.2°C 47.9°F8.8°C 70% 6.9 mph WSW11.1 kmh WSW 11.5 mph18.5 kmh 30.21 in1023.0 mb - 0.00 in0.0 mm 0.00 in0.0 mm
05:20 PM 57.7°F14.3°C 47.6°F8.7°C 69% 8.1 mph WSW13.0 kmh WSW 11.5 mph18.5 kmh 30.20 in1022.7 mb - 0.00 in0.0 mm 0.00 in0.0 mm
05:30 PM 57.3°F14.1°C 47.6°F8.7°C 70% 4.6 mph WSW7.4 kmh WSW 8.1 mph13.0 kmh 30.21 in1023.0 mb - 0.00 in0.0 mm 0.00 in0.0 mm
05:40 PM 57.2°F14.0°C 47.1°F8.4°C 69% 8.1 mph WSW13.0 kmh WSW 10.4 mph16.7 kmh 30.21 in1023.0 mb - 0.00 in0.0 mm 0.00 in0.0 mm
05:50 PM 56.8°F13.8°C 46.7°F8.2°C 69% 5.8 mph WSW9.3 kmh WSW 10.4 mph16.7 kmh 30.21 in1023.0 mb - 0.00 in0.0 mm 0.00 in0.0 mm
06:00 PM 56.0°F13.3°C 46.7°F8.2°C 71% 5.8 mph WSW9.3 kmh WSW 9.2 mph14.8 kmh 30.21 in1023.0 mb - 0.00 in0.0 mm 0.00 in0.0 mm
06:10 PM 55.9°F13.3°C 47.4°F8.6°C 73% 5.8 mph WSW9.3 kmh WSW 8.1 mph13.0 kmh 30.20 in1022.7 mb - 0.00 in0.0 mm 0.00 in0.0 mm
06:20 PM 55.4°F13.0°C 46.2°F7.9°C 71% 5.8 mph W9.3 kmh W 10.4 mph16.7 kmh 30.21 in1023.0 mb - 0.00 in0.0 mm 0.00 in0.0 mm
06:30 PM 55.1°F12.8°C 46.6°F8.1°C 73% 6.9 mph W11.1 kmh W 11.5 mph18.5 kmh 30.21 in1023.0 mb - 0.00 in0.0 mm 0.00 in0.0 mm
06:40 PM 55.1°F12.8°C 46.9°F8.3°C 74% 6.9 mph W11.1 kmh W 13.8 mph22.2 kmh 30.21 in1023.0 mb - 0.00 in0.0 mm 0.00 in0.0 mm
06:50 PM 55.0°F12.8°C 47.2°F8.4°C 75% 4.6 mph WNW7.4 kmh WNW 8.1 mph13.0 kmh 30.21 in1023.0 mb - 0.00 in0.0 mm 0.00 in0.0 mm
07:00 PM 54.4°F12.4°C 46.6°F8.1°C 75% Calm Calm 3.5 mph5.6 kmh 30.21 in1023.0 mb - 0.00 in0.0 mm 0.00 in0.0 mm
07:10 PM 54.2°F12.3°C 45.7°F7.6°C 73% 5.8 mph SW9.3 kmh SW 8.1 mph13.0 kmh 30.20 in1022.7 mb - 0.00 in0.0 mm 0.00 in0.0 mm
07:20 PM 53.8°F12.1°C 45.7°F7.6°C 74% Calm Calm -- 30.20 in1022.7 mb - 0.00 in0.0 mm 0.00 in0.0 mm
07:30 PM 53.4°F11.9°C 46.0°F7.8°C 76% Calm Calm -- 30.20 in1022.7 mb - 0.00 in0.0 mm 0.00 in0.0 mm
07:40 PM 53.6°F12.0°C 46.5°F8.1°C 77% Calm Calm -- 30.20 in1022.7 mb - 0.00 in0.0 mm 0.00 in0.0 mm
07:50 PM 54.0°F12.2°C 47.0°F8.3°C 77% 3.5 mph W5.6 kmh W 10.4 mph16.7 kmh 30.21 in1023.0 mb - 0.00 in0.0 mm 0.00 in0.0 mm
08:00 PM 54.1°F12.3°C 46.7°F8.2°C 76% Calm Calm 3.5 mph5.6 kmh 30.22 in1023.4 mb - 0.00 in0.0 mm 0.00 in0.0 mm
08:10 PM 53.7°F12.1°C 46.3°F7.9°C 76% 1.2 mph WSW1.9 kmh WSW 2.3 mph3.7 kmh 30.22 in1023.4 mb - 0.00 in0.0 mm 0.00 in0.0 mm
08:20 PM 53.9°F12.2°C 46.5°F8.1°C 76% 1.2 mph W1.9 kmh W 3.5 mph5.6 kmh 30.22 in1023.4 mb - 0.00 in0.0 mm 0.00 in0.0 mm
08:30 PM 54.0°F12.2°C 46.6°F8.1°C 76% 2.3 mph WSW3.7 kmh WSW 3.5 mph5.6 kmh 30.22 in1023.4 mb - 0.00 in0.0 mm 0.00 in0.0 mm
08:40 PM 53.8°F12.1°C 46.4°F8.0°C 76% 3.5 mph W5.6 kmh W 11.5 mph18.5 kmh 30.22 in1023.4 mb - 0.00 in0.0 mm 0.00 in0.0 mm
08:50 PM 54.0°F12.2°C 46.6°F8.1°C 76% 1.2 mph WSW1.9 kmh WSW 4.6 mph7.4 kmh 30.21 in1023.0 mb - 0.00 in0.0 mm 0.00 in0.0 mm
09:00 PM 54.0°F12.2°C 47.0°F8.3°C 77% 2.3 mph W3.7 kmh W 4.6 mph7.4 kmh 30.21 in1023.0 mb - 0.00 in0.0 mm 0.00 in0.0 mm
09:10 PM 54.1°F12.3°C 47.0°F8.3°C 77% 2.3 mph WSW3.7 kmh WSW 6.9 mph11.1 kmh 30.21 in1023.0 mb - 0.00 in0.0 mm 0.00 in0.0 mm
09:20 PM 54.3°F12.4°C 46.9°F8.3°C 76% 5.8 mph WSW9.3 kmh WSW 9.2 mph14.8 kmh 30.21 in1023.0 mb - 0.00 in0.0 mm 0.00 in0.0 mm
09:30 PM 54.6°F12.6°C 47.6°F8.7°C 77% 8.1 mph WNW13.0 kmh WNW 15.0 mph24.1 kmh 30.21 in1023.0 mb - 0.00 in0.0 mm 0.00 in0.0 mm
09:40 PM 55.0°F12.8°C 48.3°F9.1°C 78% 2.3 mph W3.7 kmh W 11.5 mph18.5 kmh 30.21 in1023.0 mb - 0.00 in0.0 mm 0.00 in0.0 mm
09:50 PM 55.0°F12.8°C 48.3°F9.1°C 78% 4.6 mph W7.4 kmh W 11.5 mph18.5 kmh 30.21 in1023.0 mb - 0.00 in0.0 mm 0.00 in0.0 mm
10:00 PM 55.1°F12.8°C 48.0°F8.9°C 77% 5.8 mph W9.3 kmh W 11.5 mph18.5 kmh 30.21 in1023.0 mb - 0.00 in0.0 mm 0.00 in0.0 mm
10:10 PM 55.2°F12.9°C 47.7°F8.7°C 76% 5.8 mph WSW9.3 kmh WSW 11.5 mph18.5 kmh 30.21 in1023.0 mb - 0.00 in0.0 mm 0.00 in0.0 mm
10:20 PM 55.3°F12.9°C 48.2°F9.0°C 77% Calm Calm 3.5 mph5.6 kmh 30.21 in1023.0 mb - 0.00 in0.0 mm 0.00 in0.0 mm
10:30 PM 55.1°F12.8°C 48.0°F8.9°C 77% 4.6 mph WNW7.4 kmh WNW 12.7 mph20.4 kmh 30.21 in1023.0 mb - 0.00 in0.0 mm 0.00 in0.0 mm
10:40 PM 54.9°F12.7°C 47.5°F8.6°C 76% 4.6 mph WSW7.4 kmh WSW 11.5 mph18.5 kmh 30.21 in1023.0 mb - 0.00 in0.0 mm 0.00 in0.0 mm
10:50 PM 54.7°F12.6°C 46.6°F8.1°C 74% 6.9 mph W11.1 kmh W 8.1 mph13.0 kmh 30.21 in1023.0 mb - 0.00 in0.0 mm 0.00 in0.0 mm
11:00 PM 54.5°F12.5°C 46.4°F8.0°C 74% 2.3 mph W3.7 kmh W 9.2 mph14.8 kmh 30.21 in1023.0 mb - 0.00 in0.0 mm 0.00 in0.0 mm
11:10 PM 54.2°F12.3°C 46.5°F8.1°C 75% 1.2 mph WSW1.9 kmh WSW 4.6 mph7.4 kmh 30.21 in1023.0 mb - 0.00 in0.0 mm 0.00 in0.0 mm
11:20 PM 54.1°F12.3°C 46.7°F8.2°C 76% 2.3 mph WSW3.7 kmh WSW 10.4 mph16.7 kmh 30.20 in1022.7 mb - 0.00 in0.0 mm 0.00 in0.0 mm
11:30 PM 54.1°F12.3°C 46.7°F8.2°C 76% 1.2 mph WSW1.9 kmh WSW 3.5 mph5.6 kmh 30.20 in1022.7 mb - 0.00 in0.0 mm 0.00 in0.0 mm
11:40 PM 53.9°F12.2°C 46.9°F8.3°C 77% 1.2 mph W1.9 kmh W 10.4 mph16.7 kmh 30.19 in1022.4 mb - 0.00 in0.0 mm 0.00 in0.0 mm
11:50 PM 53.8°F12.1°C 47.1°F8.4°C 78% Calm Calm -- 30.18 in1022.0 mb - 0.00 in0.0 mm 0.00 in0.0 mm